sensor_id;sensor_type;location;lat;lon;timestamp;P1;durP1;ratioP1;P2;durP2;ratioP2
32760;SDS011;19126;47.472;7.850;2022-09-03T00:00:18;12.05;;;9.63;;
32760;SDS011;19126;47.472;7.850;2022-09-03T00:02:49;20.20;;;10.07;;
32760;SDS011;19126;47.472;7.850;2022-09-03T00:05:25;12.38;;;9.50;;
32760;SDS011;19126;47.472;7.850;2022-09-03T00:08:05;18.75;;;9.70;;
32760;SDS011;19126;47.472;7.850;2022-09-03T00:10:39;11.88;;;9.45;;
32760;SDS011;19126;47.472;7.850;2022-09-03T00:13:13;16.70;;;10.43;;
32760;SDS011;19126;47.472;7.850;2022-09-03T00:15:45;13.52;;;11.63;;
32760;SDS011;19126;47.472;7.850;2022-09-03T00:18:13;18.30;;;10.15;;
32760;SDS011;19126;47.472;7.850;2022-09-03T00:20:46;13.30;;;9.63;;
32760;SDS011;19126;47.472;7.850;2022-09-03T00:23:23;23.55;;;11.25;;
32760;SDS011;19126;47.472;7.850;2022-09-03T00:25:57;16.70;;;9.88;;
32760;SDS011;19126;47.472;7.850;2022-09-03T00:28:43;18.17;;;11.48;;
32760;SDS011;19126;47.472;7.850;2022-09-03T00:31:15;18.13;;;11.07;;
32760;SDS011;19126;47.472;7.850;2022-09-03T00:33:51;12.68;;;10.48;;
32760;SDS011;19126;47.472;7.850;2022-09-03T00:36:27;16.25;;;10.07;;
32760;SDS011;19126;47.472;7.850;2022-09-03T00:39:02;15.63;;;10.55;;
32760;SDS011;19126;47.472;7.850;2022-09-03T00:41:32;25.70;;;12.07;;
32760;SDS011;19126;47.472;7.850;2022-09-03T00:44:12;14.73;;;9.90;;
32760;SDS011;19126;47.472;7.850;2022-09-03T00:46:58;15.27;;;10.23;;
32760;SDS011;19126;47.472;7.850;2022-09-03T00:49:39;20.63;;;11.00;;
32760;SDS011;19126;47.472;7.850;2022-09-03T00:52:22;15.90;;;10.88;;
32760;SDS011;19126;47.472;7.850;2022-09-03T00:55:12;18.77;;;11.60;;
32760;SDS011;19126;47.472;7.850;2022-09-03T00:58:02;11.50;;;9.93;;
32760;SDS011;19126;47.472;7.850;2022-09-03T01:00:55;16.55;;;11.80;;
32760;SDS011;19126;47.472;7.850;2022-09-03T01:03:25;15.13;;;11.02;;
32760;SDS011;19126;47.472;7.850;2022-09-03T01:06:07;13.02;;;10.95;;
32760;SDS011;19126;47.472;7.850;2022-09-03T01:08:50;17.02;;;12.35;;
32760;SDS011;19126;47.472;7.850;2022-09-03T01:11:30;15.98;;;11.43;;
32760;SDS011;19126;47.472;7.850;2022-09-03T01:14:10;16.90;;;11.63;;
32760;SDS011;19126;47.472;7.850;2022-09-03T01:19:31;14.18;;;11.43;;
32760;SDS011;19126;47.472;7.850;2022-09-03T01:22:35;15.48;;;9.90;;
32760;SDS011;19126;47.472;7.850;2022-09-03T01:25:48;15.93;;;11.48;;
32760;SDS011;19126;47.472;7.850;2022-09-03T01:28:25;14.93;;;11.95;;
32760;SDS011;19126;47.472;7.850;2022-09-03T01:31:09;18.60;;;13.05;;
32760;SDS011;19126;47.472;7.850;2022-09-03T01:33:49;14.48;;;12.10;;
32760;SDS011;19126;47.472;7.850;2022-09-03T01:36:28;20.50;;;11.68;;
32760;SDS011;19126;47.472;7.850;2022-09-03T01:39:06;15.43;;;10.90;;
32760;SDS011;19126;47.472;7.850;2022-09-03T01:41:44;16.25;;;11.68;;
32760;SDS011;19126;47.472;7.850;2022-09-03T01:44:45;16.73;;;12.70;;
32760;SDS011;19126;47.472;7.850;2022-09-03T01:47:37;17.02;;;13.45;;
32760;SDS011;19126;47.472;7.850;2022-09-03T01:50:22;16.70;;;12.20;;
32760;SDS011;19126;47.472;7.850;2022-09-03T01:53:04;12.95;;;10.88;;
32760;SDS011;19126;47.472;7.850;2022-09-03T01:55:42;14.45;;;10.45;;
32760;SDS011;19126;47.472;7.850;2022-09-03T01:58:25;17.30;;;12.52;;
32760;SDS011;19126;47.472;7.850;2022-09-03T02:01:00;17.17;;;11.68;;
32760;SDS011;19126;47.472;7.850;2022-09-03T02:03:33;17.05;;;12.50;;
32760;SDS011;19126;47.472;7.850;2022-09-03T02:06:06;13.48;;;12.05;;
32760;SDS011;19126;47.472;7.850;2022-09-03T02:08:35;15.18;;;10.73;;
32760;SDS011;19126;47.472;7.850;2022-09-03T02:11:03;14.95;;;11.95;;
32760;SDS011;19126;47.472;7.850;2022-09-03T02:13:34;18.17;;;12.55;;
32760;SDS011;19126;47.472;7.850;2022-09-03T02:16:06;14.98;;;11.88;;
32760;SDS011;19126;47.472;7.850;2022-09-03T02:18:40;24.92;;;14.05;;
32760;SDS011;19126;47.472;7.850;2022-09-03T02:21:11;16.23;;;13.00;;
32760;SDS011;19126;47.472;7.850;2022-09-03T02:23:41;20.65;;;13.05;;
32760;SDS011;19126;47.472;7.850;2022-09-03T02:26:09;19.55;;;13.55;;
32760;SDS011;19126;47.472;7.850;2022-09-03T02:28:39;22.13;;;13.88;;
32760;SDS011;19126;47.472;7.850;2022-09-03T02:31:08;25.73;;;12.93;;
32760;SDS011;19126;47.472;7.850;2022-09-03T02:33:36;22.70;;;12.88;;
32760;SDS011;19126;47.472;7.850;2022-09-03T02:36:07;18.13;;;14.15;;
32760;SDS011;19126;47.472;7.850;2022-09-03T02:38:36;20.27;;;14.05;;
32760;SDS011;19126;47.472;7.850;2022-09-03T02:41:07;36.85;;;14.65;;
32760;SDS011;19126;47.472;7.850;2022-09-03T02:43:38;17.02;;;13.55;;
32760;SDS011;19126;47.472;7.850;2022-09-03T02:46:13;21.88;;;14.10;;
32760;SDS011;19126;47.472;7.850;2022-09-03T02:48:46;21.13;;;13.80;;
32760;SDS011;19126;47.472;7.850;2022-09-03T02:51:13;17.83;;;14.35;;
32760;SDS011;19126;47.472;7.850;2022-09-03T02:53:41;22.85;;;15.23;;
32760;SDS011;19126;47.472;7.850;2022-09-03T02:56:08;22.23;;;14.60;;
32760;SDS011;19126;47.472;7.850;2022-09-03T02:58:36;17.67;;;14.57;;
32760;SDS011;19126;47.472;7.850;2022-09-03T03:01:03;18.10;;;13.35;;
32760;SDS011;19126;47.472;7.850;2022-09-03T03:03:32;17.10;;;13.18;;
32760;SDS011;19126;47.472;7.850;2022-09-03T03:06:00;18.48;;;12.50;;
32760;SDS011;19126;47.472;7.850;2022-09-03T03:08:31;18.17;;;12.73;;
32760;SDS011;19126;47.472;7.850;2022-09-03T03:10:59;21.38;;;11.63;;
32760;SDS011;19126;47.472;7.850;2022-09-03T03:13:27;16.00;;;12.48;;
32760;SDS011;19126;47.472;7.850;2022-09-03T03:15:56;17.25;;;12.60;;
32760;SDS011;19126;47.472;7.850;2022-09-03T03:18:23;19.23;;;12.30;;
32760;SDS011;19126;47.472;7.850;2022-09-03T03:20:53;16.42;;;12.13;;
32760;SDS011;19126;47.472;7.850;2022-09-03T03:23:20;23.05;;;13.57;;
32760;SDS011;19126;47.472;7.850;2022-09-03T03:25:47;14.75;;;11.48;;
32760;SDS011;19126;47.472;7.850;2022-09-03T03:28:14;14.73;;;11.60;;
32760;SDS011;19126;47.472;7.850;2022-09-03T03:30:42;21.15;;;12.90;;
32760;SDS011;19126;47.472;7.850;2022-09-03T03:33:12;20.80;;;12.27;;
32760;SDS011;19126;47.472;7.850;2022-09-03T03:35:39;16.08;;;11.85;;
32760;SDS011;19126;47.472;7.850;2022-09-03T03:38:08;12.18;;;10.23;;
32760;SDS011;19126;47.472;7.850;2022-09-03T03:40:36;19.98;;;11.65;;
32760;SDS011;19126;47.472;7.850;2022-09-03T03:43:03;17.58;;;11.70;;
32760;SDS011;19126;47.472;7.850;2022-09-03T03:45:30;15.23;;;11.20;;
32760;SDS011;19126;47.472;7.850;2022-09-03T03:47:58;13.35;;;11.90;;
32760;SDS011;19126;47.472;7.850;2022-09-03T03:50:25;13.70;;;11.40;;
32760;SDS011;19126;47.472;7.850;2022-09-03T03:52:53;18.75;;;11.18;;
32760;SDS011;19126;47.472;7.850;2022-09-03T03:55:21;15.27;;;11.52;;
32760;SDS011;19126;47.472;7.850;2022-09-03T03:57:48;15.45;;;11.40;;
32760;SDS011;19126;47.472;7.850;2022-09-03T04:00:16;19.63;;;11.55;;
32760;SDS011;19126;47.472;7.850;2022-09-03T04:02:43;14.98;;;11.65;;
32760;SDS011;19126;47.472;7.850;2022-09-03T04:05:11;15.30;;;10.00;;
32760;SDS011;19126;47.472;7.850;2022-09-03T04:07:38;15.85;;;10.77;;
32760;SDS011;19126;47.472;7.850;2022-09-03T04:10:06;11.98;;;10.35;;
32760;SDS011;19126;47.472;7.850;2022-09-03T04:12:36;11.32;;;9.35;;
32760;SDS011;19126;47.472;7.850;2022-09-03T04:15:03;14.43;;;8.10;;
32760;SDS011;19126;47.472;7.850;2022-09-03T04:17:31;12.90;;;9.10;;
32760;SDS011;19126;47.472;7.850;2022-09-03T04:19:58;12.05;;;9.48;;
32760;SDS011;19126;47.472;7.850;2022-09-03T04:22:27;15.30;;;10.20;;
32760;SDS011;19126;47.472;7.850;2022-09-03T04:24:54;12.50;;;9.05;;
32760;SDS011;19126;47.472;7.850;2022-09-03T04:27:21;15.10;;;8.77;;
32760;SDS011;19126;47.472;7.850;2022-09-03T04:29:50;15.27;;;9.43;;
32760;SDS011;19126;47.472;7.850;2022-09-03T04:32:17;13.80;;;8.18;;
32760;SDS011;19126;47.472;7.850;2022-09-03T04:35:01;12.10;;;7.40;;
32760;SDS011;19126;47.472;7.850;2022-09-03T04:37:29;11.00;;;7.30;;
32760;SDS011;19126;47.472;7.850;2022-09-03T04:39:57;9.02;;;6.75;;
32760;SDS011;19126;47.472;7.850;2022-09-03T04:42:24;8.35;;;6.88;;
32760;SDS011;19126;47.472;7.850;2022-09-03T04:44:54;11.20;;;6.38;;
32760;SDS011;19126;47.472;7.850;2022-09-03T04:47:21;11.30;;;6.05;;
32760;SDS011;19126;47.472;7.850;2022-09-03T04:49:48;8.63;;;6.30;;
32760;SDS011;19126;47.472;7.850;2022-09-03T04:52:15;9.77;;;6.70;;
32760;SDS011;19126;47.472;7.850;2022-09-03T04:54:43;11.23;;;6.53;;
32760;SDS011;19126;47.472;7.850;2022-09-03T04:57:10;7.80;;;5.95;;
32760;SDS011;19126;47.472;7.850;2022-09-03T04:59:37;11.50;;;6.93;;
32760;SDS011;19126;47.472;7.850;2022-09-03T05:02:08;11.20;;;6.13;;
32760;SDS011;19126;47.472;7.850;2022-09-03T05:04:35;11.10;;;6.72;;
32760;SDS011;19126;47.472;7.850;2022-09-03T05:07:02;15.75;;;6.85;;
32760;SDS011;19126;47.472;7.850;2022-09-03T05:09:29;8.05;;;5.57;;
32760;SDS011;19126;47.472;7.850;2022-09-03T05:11:56;6.97;;;5.25;;
32760;SDS011;19126;47.472;7.850;2022-09-03T05:14:23;5.75;;;4.53;;
32760;SDS011;19126;47.472;7.850;2022-09-03T05:16:51;7.72;;;4.55;;
32760;SDS011;19126;47.472;7.850;2022-09-03T05:19:19;4.38;;;3.80;;
32760;SDS011;19126;47.472;7.850;2022-09-03T05:21:46;7.32;;;3.83;;
32760;SDS011;19126;47.472;7.850;2022-09-03T05:24:13;7.07;;;4.10;;
32760;SDS011;19126;47.472;7.850;2022-09-03T05:26:42;5.78;;;3.55;;
32760;SDS011;19126;47.472;7.850;2022-09-03T05:29:09;7.32;;;4.38;;
32760;SDS011;19126;47.472;7.850;2022-09-03T05:31:37;5.45;;;4.03;;
32760;SDS011;19126;47.472;7.850;2022-09-03T05:34:05;6.28;;;4.22;;
32760;SDS011;19126;47.472;7.850;2022-09-03T05:36:36;6.50;;;4.07;;
32760;SDS011;19126;47.472;7.850;2022-09-03T05:39:04;8.18;;;4.60;;
32760;SDS011;19126;47.472;7.850;2022-09-03T05:41:32;4.95;;;4.05;;
32760;SDS011;19126;47.472;7.850;2022-09-03T05:43:59;5.40;;;4.43;;
32760;SDS011;19126;47.472;7.850;2022-09-03T05:46:28;9.25;;;4.60;;
32760;SDS011;19126;47.472;7.850;2022-09-03T05:48:57;6.90;;;4.43;;
32760;SDS011;19126;47.472;7.850;2022-09-03T05:51:26;7.43;;;4.70;;
32760;SDS011;19126;47.472;7.850;2022-09-03T05:53:56;6.43;;;4.80;;
32760;SDS011;19126;47.472;7.850;2022-09-03T05:56:24;5.47;;;4.90;;
32760;SDS011;19126;47.472;7.850;2022-09-03T05:58:55;7.00;;;5.25;;
32760;SDS011;19126;47.472;7.850;2022-09-03T06:01:26;7.47;;;5.28;;
32760;SDS011;19126;47.472;7.850;2022-09-03T06:03:55;8.05;;;5.10;;
32760;SDS011;19126;47.472;7.850;2022-09-03T06:06:25;7.47;;;5.72;;
32760;SDS011;19126;47.472;7.850;2022-09-03T06:08:56;8.15;;;5.50;;
32760;SDS011;19126;47.472;7.850;2022-09-03T06:11:24;8.25;;;5.75;;
32760;SDS011;19126;47.472;7.850;2022-09-03T06:13:53;7.53;;;5.78;;
32760;SDS011;19126;47.472;7.850;2022-09-03T06:16:21;7.47;;;4.78;;
32760;SDS011;19126;47.472;7.850;2022-09-03T06:18:49;9.82;;;5.63;;
32760;SDS011;19126;47.472;7.850;2022-09-03T06:21:17;6.28;;;5.18;;
32760;SDS011;19126;47.472;7.850;2022-09-03T06:23:47;9.13;;;4.93;;
32760;SDS011;19126;47.472;7.850;2022-09-03T06:26:20;5.45;;;4.72;;
32760;SDS011;19126;47.472;7.850;2022-09-03T06:28:57;11.77;;;5.05;;
32760;SDS011;19126;47.472;7.850;2022-09-03T06:31:24;7.97;;;4.93;;
32760;SDS011;19126;47.472;7.850;2022-09-03T06:33:52;7.72;;;5.38;;
32760;SDS011;19126;47.472;7.850;2022-09-03T06:36:20;6.15;;;5.10;;
32760;SDS011;19126;47.472;7.850;2022-09-03T06:38:51;7.05;;;4.63;;
32760;SDS011;19126;47.472;7.850;2022-09-03T06:41:21;5.82;;;4.50;;
32760;SDS011;19126;47.472;7.850;2022-09-03T06:43:51;5.18;;;4.63;;
32760;SDS011;19126;47.472;7.850;2022-09-03T06:46:21;11.55;;;4.97;;
32760;SDS011;19126;47.472;7.850;2022-09-03T06:48:49;5.30;;;4.30;;
32760;SDS011;19126;47.472;7.850;2022-09-03T06:51:18;6.07;;;3.55;;
32760;SDS011;19126;47.472;7.850;2022-09-03T06:53:48;5.72;;;4.38;;
32760;SDS011;19126;47.472;7.850;2022-09-03T06:56:17;6.10;;;3.40;;
32760;SDS011;19126;47.472;7.850;2022-09-03T06:58:51;5.30;;;3.13;;
32760;SDS011;19126;47.472;7.850;2022-09-03T07:01:21;3.92;;;3.63;;
32760;SDS011;19126;47.472;7.850;2022-09-03T07:03:51;5.03;;;3.00;;
32760;SDS011;19126;47.472;7.850;2022-09-03T07:06:21;4.07;;;2.83;;
32760;SDS011;19126;47.472;7.850;2022-09-03T07:08:51;4.35;;;3.35;;
32760;SDS011;19126;47.472;7.850;2022-09-03T07:11:24;3.15;;;2.70;;
32760;SDS011;19126;47.472;7.850;2022-09-03T07:13:56;4.47;;;2.80;;
32760;SDS011;19126;47.472;7.850;2022-09-03T07:16:24;4.30;;;2.72;;
32760;SDS011;19126;47.472;7.850;2022-09-03T07:18:53;2.88;;;2.60;;
32760;SDS011;19126;47.472;7.850;2022-09-03T07:21:22;3.15;;;2.50;;
32760;SDS011;19126;47.472;7.850;2022-09-03T07:23:52;3.42;;;2.47;;
32760;SDS011;19126;47.472;7.850;2022-09-03T07:26:21;6.05;;;2.70;;
32760;SDS011;19126;47.472;7.850;2022-09-03T07:28:52;3.30;;;2.83;;
32760;SDS011;19126;47.472;7.850;2022-09-03T07:31:21;7.35;;;3.15;;
32760;SDS011;19126;47.472;7.850;2022-09-03T07:33:52;10.90;;;2.80;;
32760;SDS011;19126;47.472;7.850;2022-09-03T07:36:21;3.15;;;2.60;;
32760;SDS011;19126;47.472;7.850;2022-09-03T07:38:50;8.07;;;2.75;;
32760;SDS011;19126;47.472;7.850;2022-09-03T07:41:20;3.95;;;3.08;;
32760;SDS011;19126;47.472;7.850;2022-09-03T07:43:50;4.07;;;2.80;;
32760;SDS011;19126;47.472;7.850;2022-09-03T07:46:18;4.82;;;2.58;;
32760;SDS011;19126;47.472;7.850;2022-09-03T07:48:48;2.97;;;2.42;;
32760;SDS011;19126;47.472;7.850;2022-09-03T07:51:16;2.90;;;2.60;;
32760;SDS011;19126;47.472;7.850;2022-09-03T07:53:44;5.47;;;2.70;;
32760;SDS011;19126;47.472;7.850;2022-09-03T07:56:12;3.22;;;2.85;;
32760;SDS011;19126;47.472;7.850;2022-09-03T07:58:40;3.67;;;2.70;;
32760;SDS011;19126;47.472;7.850;2022-09-03T08:01:10;7.20;;;2.80;;
32760;SDS011;19126;47.472;7.850;2022-09-03T08:03:41;3.05;;;2.55;;
32760;SDS011;19126;47.472;7.850;2022-09-03T08:08:39;2.92;;;2.08;;
32760;SDS011;19126;47.472;7.850;2022-09-03T08:11:09;3.28;;;1.98;;
32760;SDS011;19126;47.472;7.850;2022-09-03T08:16:29;2.35;;;1.80;;
32760;SDS011;19126;47.472;7.850;2022-09-03T08:18:58;6.65;;;1.98;;
32760;SDS011;19126;47.472;7.850;2022-09-03T08:21:25;1.90;;;1.70;;
32760;SDS011;19126;47.472;7.850;2022-09-03T08:23:54;2.55;;;1.88;;
32760;SDS011;19126;47.472;7.850;2022-09-03T08:26:27;3.53;;;1.60;;
32760;SDS011;19126;47.472;7.850;2022-09-03T08:28:56;5.78;;;1.98;;
32760;SDS011;19126;47.472;7.850;2022-09-03T08:31:24;2.78;;;1.88;;
32760;SDS011;19126;47.472;7.850;2022-09-03T08:33:55;2.85;;;1.90;;
32760;SDS011;19126;47.472;7.850;2022-09-03T08:36:25;2.38;;;2.13;;
32760;SDS011;19126;47.472;7.850;2022-09-03T08:38:54;2.55;;;1.90;;
32760;SDS011;19126;47.472;7.850;2022-09-03T08:41:31;2.92;;;2.35;;
32760;SDS011;19126;47.472;7.850;2022-09-03T08:44:13;33.35;;;5.57;;
32760;SDS011;19126;47.472;7.850;2022-09-03T08:46:49;25.55;;;6.20;;
32760;SDS011;19126;47.472;7.850;2022-09-03T08:49:25;32.88;;;4.00;;
32760;SDS011;19126;47.472;7.850;2022-09-03T08:51:59;10.57;;;3.90;;
32760;SDS011;19126;47.472;7.850;2022-09-03T08:54:31;9.20;;;3.47;;
32760;SDS011;19126;47.472;7.850;2022-09-03T08:57:00;12.68;;;4.47;;
32760;SDS011;19126;47.472;7.850;2022-09-03T08:59:29;7.22;;;2.95;;
32760;SDS011;19126;47.472;7.850;2022-09-03T09:01:59;5.47;;;3.03;;
32760;SDS011;19126;47.472;7.850;2022-09-03T09:04:46;6.55;;;2.03;;
32760;SDS011;19126;47.472;7.850;2022-09-03T09:07:29;2.78;;;2.30;;
32760;SDS011;19126;47.472;7.850;2022-09-03T09:10:07;6.93;;;2.13;;
32760;SDS011;19126;47.472;7.850;2022-09-03T09:12:44;3.95;;;2.10;;
32760;SDS011;19126;47.472;7.850;2022-09-03T09:18:26;5.85;;;2.70;;
32760;SDS011;19126;47.472;7.850;2022-09-03T09:23:39;3.05;;;2.08;;
32760;SDS011;19126;47.472;7.850;2022-09-03T09:26:12;2.55;;;2.10;;
32760;SDS011;19126;47.472;7.850;2022-09-03T09:28:42;2.72;;;1.77;;
32760;SDS011;19126;47.472;7.850;2022-09-03T09:31:13;2.60;;;2.20;;
32760;SDS011;19126;47.472;7.850;2022-09-03T09:33:42;4.32;;;2.17;;
32760;SDS011;19126;47.472;7.850;2022-09-03T09:36:12;4.50;;;2.20;;
32760;SDS011;19126;47.472;7.850;2022-09-03T09:38:43;6.25;;;2.55;;
32760;SDS011;19126;47.472;7.850;2022-09-03T09:41:13;9.07;;;2.60;;
32760;SDS011;19126;47.472;7.850;2022-09-03T09:43:43;4.43;;;2.63;;
32760;SDS011;19126;47.472;7.850;2022-09-03T09:46:12;4.45;;;2.75;;
32760;SDS011;19126;47.472;7.850;2022-09-03T09:48:47;3.75;;;2.60;;
32760;SDS011;19126;47.472;7.850;2022-09-03T09:51:19;5.32;;;2.90;;
32760;SDS011;19126;47.472;7.850;2022-09-03T09:53:58;6.40;;;2.78;;
32760;SDS011;19126;47.472;7.850;2022-09-03T09:56:27;4.75;;;2.95;;
32760;SDS011;19126;47.472;7.850;2022-09-03T09:59:01;5.03;;;2.65;;
32760;SDS011;19126;47.472;7.850;2022-09-03T10:01:30;3.25;;;2.55;;
32760;SDS011;19126;47.472;7.850;2022-09-03T10:03:59;4.40;;;2.42;;
32760;SDS011;19126;47.472;7.850;2022-09-03T10:06:36;3.97;;;2.30;;
32760;SDS011;19126;47.472;7.850;2022-09-03T10:09:21;6.85;;;2.45;;
32760;SDS011;19126;47.472;7.850;2022-09-03T10:11:52;7.10;;;2.55;;
32760;SDS011;19126;47.472;7.850;2022-09-03T10:14:31;5.10;;;2.28;;
32760;SDS011;19126;47.472;7.850;2022-09-03T10:17:08;4.20;;;2.25;;
32760;SDS011;19126;47.472;7.850;2022-09-03T10:19:45;6.60;;;2.35;;
32760;SDS011;19126;47.472;7.850;2022-09-03T10:22:39;13.13;;;2.40;;
32760;SDS011;19126;47.472;7.850;2022-09-03T10:25:11;3.65;;;2.83;;
32760;SDS011;19126;47.472;7.850;2022-09-03T10:27:41;6.38;;;3.33;;
32760;SDS011;19126;47.472;7.850;2022-09-03T10:35:05;4.47;;;3.00;;
32760;SDS011;19126;47.472;7.850;2022-09-03T10:37:46;4.13;;;2.33;;
32760;SDS011;19126;47.472;7.850;2022-09-03T10:40:24;3.80;;;2.40;;
32760;SDS011;19126;47.472;7.850;2022-09-03T10:43:07;4.70;;;2.20;;
32760;SDS011;19126;47.472;7.850;2022-09-03T10:45:59;3.05;;;1.85;;
32760;SDS011;19126;47.472;7.850;2022-09-03T10:48:38;3.10;;;1.63;;
32760;SDS011;19126;47.472;7.850;2022-09-03T10:51:19;8.55;;;1.48;;
32760;SDS011;19126;47.472;7.850;2022-09-03T10:54:04;4.82;;;1.50;;
32760;SDS011;19126;47.472;7.850;2022-09-03T10:56:58;2.78;;;1.50;;
32760;SDS011;19126;47.472;7.850;2022-09-03T10:59:41;4.43;;;1.80;;
32760;SDS011;19126;47.472;7.850;2022-09-03T11:02:30;4.32;;;1.40;;
32760;SDS011;19126;47.472;7.850;2022-09-03T11:05:26;2.40;;;1.23;;
32760;SDS011;19126;47.472;7.850;2022-09-03T11:08:02;4.65;;;1.10;;
32760;SDS011;19126;47.472;7.850;2022-09-03T11:10:38;4.20;;;1.15;;
32760;SDS011;19126;47.472;7.850;2022-09-03T11:13:11;2.72;;;1.10;;
32760;SDS011;19126;47.472;7.850;2022-09-03T11:15:47;1.40;;;1.30;;
32760;SDS011;19126;47.472;7.850;2022-09-03T11:18:19;4.05;;;1.30;;
32760;SDS011;19126;47.472;7.850;2022-09-03T11:20:51;2.47;;;1.13;;
32760;SDS011;19126;47.472;7.850;2022-09-03T11:23:29;5.00;;;1.42;;
32760;SDS011;19126;47.472;7.850;2022-09-03T11:26:04;5.95;;;1.20;;
32760;SDS011;19126;47.472;7.850;2022-09-03T11:28:37;1.27;;;1.13;;
32760;SDS011;19126;47.472;7.850;2022-09-03T11:31:19;5.28;;;1.52;;
32760;SDS011;19126;47.472;7.850;2022-09-03T11:36:28;1.08;;;1.05;;
32760;SDS011;19126;47.472;7.850;2022-09-03T11:38:58;1.40;;;1.13;;
32760;SDS011;19126;47.472;7.850;2022-09-03T11:41:27;2.65;;;1.52;;
32760;SDS011;19126;47.472;7.850;2022-09-03T11:44:09;2.80;;;1.35;;
32760;SDS011;19126;47.472;7.850;2022-09-03T11:46:51;4.20;;;1.52;;
32760;SDS011;19126;47.472;7.850;2022-09-03T11:49:24;1.30;;;1.10;;
32760;SDS011;19126;47.472;7.850;2022-09-03T11:51:57;2.38;;;1.15;;
32760;SDS011;19126;47.472;7.850;2022-09-03T11:54:26;2.57;;;1.33;;
32760;SDS011;19126;47.472;7.850;2022-09-03T11:57:08;2.40;;;1.20;;
32760;SDS011;19126;47.472;7.850;2022-09-03T11:59:39;1.00;;;0.90;;
32760;SDS011;19126;47.472;7.850;2022-09-03T12:02:12;1.05;;;0.80;;
32760;SDS011;19126;47.472;7.850;2022-09-03T12:04:53;1.73;;;1.00;;
32760;SDS011;19126;47.472;7.850;2022-09-03T12:07:40;1.55;;;0.80;;
32760;SDS011;19126;47.472;7.850;2022-09-03T12:10:45;1.20;;;0.90;;
32760;SDS011;19126;47.472;7.850;2022-09-03T12:13:32;3.63;;;1.00;;
32760;SDS011;19126;47.472;7.850;2022-09-03T12:19:17;1.10;;;1.00;;
32760;SDS011;19126;47.472;7.850;2022-09-03T12:21:53;1.70;;;0.80;;
32760;SDS011;19126;47.472;7.850;2022-09-03T12:24:21;0.70;;;0.70;;
32760;SDS011;19126;47.472;7.850;2022-09-03T12:26:52;1.77;;;1.15;;
32760;SDS011;19126;47.472;7.850;2022-09-03T12:29:24;2.15;;;0.77;;
32760;SDS011;19126;47.472;7.850;2022-09-03T12:31:54;1.35;;;1.00;;
32760;SDS011;19126;47.472;7.850;2022-09-03T12:34:31;5.43;;;1.15;;
32760;SDS011;19126;47.472;7.850;2022-09-03T12:36:58;1.80;;;1.10;;
32760;SDS011;19126;47.472;7.850;2022-09-03T12:39:26;0.95;;;0.80;;
32760;SDS011;19126;47.472;7.850;2022-09-03T12:41:57;1.33;;;1.08;;
32760;SDS011;19126;47.472;7.850;2022-09-03T12:44:30;0.93;;;0.90;;
32760;SDS011;19126;47.472;7.850;2022-09-03T12:47:04;1.27;;;1.10;;
32760;SDS011;19126;47.472;7.850;2022-09-03T12:49:38;0.77;;;0.77;;
32760;SDS011;19126;47.472;7.850;2022-09-03T12:52:14;7.38;;;3.53;;
32760;SDS011;19126;47.472;7.850;2022-09-03T12:54:47;2.10;;;1.40;;
32760;SDS011;19126;47.472;7.850;2022-09-03T12:57:20;2.22;;;1.23;;
32760;SDS011;19126;47.472;7.850;2022-09-03T12:59:55;3.22;;;1.33;;
32760;SDS011;19126;47.472;7.850;2022-09-03T13:02:30;3.17;;;1.20;;
32760;SDS011;19126;47.472;7.850;2022-09-03T13:05:07;1.30;;;1.20;;
32760;SDS011;19126;47.472;7.850;2022-09-03T13:07:42;1.77;;;0.93;;
32760;SDS011;19126;47.472;7.850;2022-09-03T13:10:21;9.00;;;1.40;;
32760;SDS011;19126;47.472;7.850;2022-09-03T13:12:56;1.80;;;1.55;;
32760;SDS011;19126;47.472;7.850;2022-09-03T13:15:28;1.38;;;1.10;;
32760;SDS011;19126;47.472;7.850;2022-09-03T13:17:58;1.05;;;1.02;;
32760;SDS011;19126;47.472;7.850;2022-09-03T13:20:45;5.47;;;1.40;;
32760;SDS011;19126;47.472;7.850;2022-09-03T13:23:39;2.17;;;1.58;;
32760;SDS011;19126;47.472;7.850;2022-09-03T13:26:23;3.00;;;1.77;;
32760;SDS011;19126;47.472;7.850;2022-09-03T13:29:11;2.05;;;1.50;;
32760;SDS011;19126;47.472;7.850;2022-09-03T13:32:01;2.25;;;1.73;;
32760;SDS011;19126;47.472;7.850;2022-09-03T13:34:45;3.58;;;1.70;;
32760;SDS011;19126;47.472;7.850;2022-09-03T13:37:20;1.75;;;1.40;;
32760;SDS011;19126;47.472;7.850;2022-09-03T13:39:55;2.28;;;2.00;;
32760;SDS011;19126;47.472;7.850;2022-09-03T13:42:26;9.53;;;1.90;;
32760;SDS011;19126;47.472;7.850;2022-09-03T13:45:00;2.42;;;1.60;;
32760;SDS011;19126;47.472;7.850;2022-09-03T13:47:38;4.30;;;2.00;;
32760;SDS011;19126;47.472;7.850;2022-09-03T13:50:30;4.78;;;1.85;;
32760;SDS011;19126;47.472;7.850;2022-09-03T13:53:07;4.43;;;1.80;;
32760;SDS011;19126;47.472;7.850;2022-09-03T13:55:43;3.58;;;1.83;;
32760;SDS011;19126;47.472;7.850;2022-09-03T13:58:17;6.70;;;1.55;;
32760;SDS011;19126;47.472;7.850;2022-09-03T14:00:53;4.40;;;1.63;;
32760;SDS011;19126;47.472;7.850;2022-09-03T14:03:41;1.48;;;1.38;;
32760;SDS011;19126;47.472;7.850;2022-09-03T14:06:16;2.90;;;1.50;;
32760;SDS011;19126;47.472;7.850;2022-09-03T14:09:08;2.80;;;1.50;;
32760;SDS011;19126;47.472;7.850;2022-09-03T14:11:48;4.70;;;1.38;;
32760;SDS011;19126;47.472;7.850;2022-09-03T14:14:27;3.38;;;1.92;;
32760;SDS011;19126;47.472;7.850;2022-09-03T14:17:09;2.58;;;1.55;;
32760;SDS011;19126;47.472;7.850;2022-09-03T14:19:44;3.40;;;1.80;;
32760;SDS011;19126;47.472;7.850;2022-09-03T14:22:19;2.30;;;1.52;;
32760;SDS011;19126;47.472;7.850;2022-09-03T14:24:51;4.57;;;1.83;;
32760;SDS011;19126;47.472;7.850;2022-09-03T14:27:24;3.83;;;1.48;;
32760;SDS011;19126;47.472;7.850;2022-09-03T14:29:57;1.52;;;1.42;;
32760;SDS011;19126;47.472;7.850;2022-09-03T14:32:27;4.70;;;1.90;;
32760;SDS011;19126;47.472;7.850;2022-09-03T14:38:11;2.42;;;1.80;;
32760;SDS011;19126;47.472;7.850;2022-09-03T14:44:20;2.88;;;1.77;;
32760;SDS011;19126;47.472;7.850;2022-09-03T14:50:45;2.67;;;2.00;;
32760;SDS011;19126;47.472;7.850;2022-09-03T14:53:47;3.85;;;1.83;;
32760;SDS011;19126;47.472;7.850;2022-09-03T14:56:38;5.57;;;3.08;;
32760;SDS011;19126;47.472;7.850;2022-09-03T14:59:33;3.40;;;2.20;;
32760;SDS011;19126;47.472;7.850;2022-09-03T15:02:46;3.28;;;2.35;;
32760;SDS011;19126;47.472;7.850;2022-09-03T15:05:35;5.68;;;2.00;;
32760;SDS011;19126;47.472;7.850;2022-09-03T15:08:38;5.97;;;2.33;;
32760;SDS011;19126;47.472;7.850;2022-09-03T15:11:21;2.88;;;2.33;;
32760;SDS011;19126;47.472;7.850;2022-09-03T15:13:52;7.45;;;2.10;;
32760;SDS011;19126;47.472;7.850;2022-09-03T15:16:35;4.68;;;2.28;;
32760;SDS011;19126;47.472;7.850;2022-09-03T15:48:46;3.67;;;2.30;;
32760;SDS011;19126;47.472;7.850;2022-09-03T15:51:19;7.40;;;2.72;;
32760;SDS011;19126;47.472;7.850;2022-09-03T15:53:54;3.90;;;2.25;;
32760;SDS011;19126;47.472;7.850;2022-09-03T15:56:29;6.78;;;2.63;;
32760;SDS011;19126;47.472;7.850;2022-09-03T15:59:06;3.55;;;2.60;;
32760;SDS011;19126;47.472;7.850;2022-09-03T16:01:43;7.05;;;2.80;;
32760;SDS011;19126;47.472;7.850;2022-09-03T16:04:21;6.57;;;3.60;;
32760;SDS011;19126;47.472;7.850;2022-09-03T16:07:08;22.15;;;5.97;;
32760;SDS011;19126;47.472;7.850;2022-09-03T16:12:25;19.33;;;4.93;;
32760;SDS011;19126;47.472;7.850;2022-09-03T16:15:01;15.15;;;7.28;;
32760;SDS011;19126;47.472;7.850;2022-09-03T16:17:32;11.05;;;5.47;;
32760;SDS011;19126;47.472;7.850;2022-09-03T16:20:13;12.75;;;7.75;;
32760;SDS011;19126;47.472;7.850;2022-09-03T16:22:47;12.68;;;7.85;;
32760;SDS011;19126;47.472;7.850;2022-09-03T16:25:20;17.20;;;4.97;;
32760;SDS011;19126;47.472;7.850;2022-09-03T16:27:54;7.50;;;4.07;;